EGUL

RAF Lakenheath Airport

Lakenheath, United Kingdom
METAR EGUL 092156Z AUTO 27006KT 9999 CLR 03/01 A3009 RMK AO2 SLP193 T00310008 $
Observed Flight Rules
Dec-9 @ 21:56 UTC (35 minutes ago) Visual Flight Rules
Wind Visibility Clouds
270° at 6 knots 10,000+ meters
  • Clear skies
Temperatures Readings
Current 3°C / 37°F
Dewpoint 1°C / 34°F
Humidity 87%
Altimeter 30.09" Hg
Pressure 1019.3 hPa
Elevation 10
METAR EGUL 092156Z AUTO 27006KT 9999 CLR 03/01 A3009 RMK AO2 SLP193 T00310008 $
Observed Flight Rules
Dec-9 @ 21:56 UTC
(35 minutes ago)
VFR
Wind Visibility
270° at 6 knots 10,000+ meters
Clouds
  • Clear skies
Temperature Dewpoint
3°C / 37°F 1°C / 34°F
Humidity Altimeter Pressure
87% 30.09" Hg 1019.3 hPa